Felix-Klein-Gymnasium, Gttingen, 150m NN
Donnes mto: Actuelle Sonntag, 21.07.2019 13:15
Date Horaire Temp. E. Hum. E. P.atmo. Pluie Vent Direction Direction Ensoleilleme P. de rose Temp au vent Rafales
21.07.2019 13:15 23,1 C 61 % 1017,6 hPa 0,0 mm 9,2 km/h (2 Bft) SO 230 15 min 15,2 C 23,1 C 24,1 km/h (4 Bft)
21.07.2019 13:00 22,7 C 61 % 1017,6 hPa 0,0 mm 8,2 km/h (2 Bft) O-NO 283 15 min 14,8 C 22,7 C 24,1 km/h (4 Bft)
21.07.2019 12:45 22,9 C 60 % 1017,5 hPa 0,0 mm 6,9 km/h (2 Bft) O-SO 254 15 min 14,7 C 22,9 C 24,1 km/h (4 Bft)
21.07.2019 12:30 22,6 C 64 % 1017,5 hPa 0,0 mm 6,2 km/h (2 Bft) S-SE 148 15 min 15,4 C 22,6 C 20,9 km/h (4 Bft)
21.07.2019 12:15 22,3 C 66 % 1017,3 hPa 0,0 mm 6,4 km/h (2 Bft) SO 221 15 min 15,6 C 22,3 C 22,5 km/h (4 Bft)
21.07.2019 12:00 21,7 C 66 % 1017,3 hPa 0,0 mm 8,6 km/h (2 Bft) S-SO 208 15 min 15,1 C 21,7 C 24,1 km/h (4 Bft)
21.07.2019 11:45 21,6 C 67 % 1017,3 hPa 0,0 mm 7,0 km/h (2 Bft) SO 232 15 min 15,2 C 21,6 C 25,7 km/h (4 Bft)
21.07.2019 11:30 21,3 C 68 % 1017,2 hPa 0,0 mm 6,2 km/h (2 Bft) S-SO 203 15 min 15,1 C 21,3 C 20,9 km/h (4 Bft)
21.07.2019 11:15 20,5 C 72 % 1017,0 hPa 0,0 mm 5,8 km/h (2 Bft) O-SO 246 15 min 15,3 C 20,5 C 19,3 km/h (3 Bft)
21.07.2019 11:00 20,4 C 73 % 1017,0 hPa 0,0 mm 5,4 km/h (1 Bft) O-SO 250 0 min 15,4 C 20,4 C 17,7 km/h (3 Bft)
21.07.2019 10:45 20,2 C 75 % 1016,8 hPa 0,0 mm 0,4 km/h (0 Bft) SO 218 0 min 15,6 C 20,2 C 12,9 km/h (3 Bft)
21.07.2019 10:30 19,7 C 77 % 1016,7 hPa 0,0 mm 0,0 km/h (0 Bft) SO 234 0 min 15,5 C 19,7 C 0,0 km/h (0 Bft)
21.07.2019 10:15 19,6 C 75 % 1016,5 hPa 0,0 mm 2,8 km/h (1 Bft) SO 221 0 min 15,0 C 19,6 C 17,7 km/h (3 Bft)
21.07.2019 10:00 19,7 C 76 % 1016,4 hPa 0,0 mm 4,4 km/h (1 Bft) SO 236 0 min 15,3 C 19,7 C 16,1 km/h (3 Bft)
21.07.2019 09:45 19,6 C 78 % 1016,2 hPa 0,0 mm 2,4 km/h (1 Bft) SO 214 0 min 15,7 C 19,6 C 16,1 km/h (3 Bft)
21.07.2019 09:30 19,4 C 81 % 1016,0 hPa 0,0 mm 6,3 km/h (2 Bft) SO 224 0 min 16,1 C 19,4 C 16,1 km/h (3 Bft)
21.07.2019 09:15 19,1 C 83 % 1015,8 hPa 0,0 mm 3,9 km/h (1 Bft) SO 219 15 min 16,1 C 19,1 C 19,3 km/h (3 Bft)
21.07.2019 09:00 18,3 C 88 % 1015,6 hPa 0,0 mm 4,9 km/h (1 Bft) S-SO 194 15 min 16,3 C 18,3 C 16,1 km/h (3 Bft)
21.07.2019 08:45 17,6 C 92 % 1015,6 hPa 0,0 mm 3,0 km/h (1 Bft) S-SO 213 15 min 16,3 C 17,6 C 19,3 km/h (3 Bft)
21.07.2019 08:30 17,3 C 94 % 1015,5 hPa 0,0 mm 1,3 km/h (1 Bft) S 190 0 min 16,3 C 17,3 C 8,0 km/h (2 Bft)
21.07.2019 08:15 17,1 C 94 % 1015,4 hPa 0,0 mm 0,8 km/h (0 Bft) E 89 0 min 16,1 C 17,1 C 8,0 km/h (2 Bft)
21.07.2019 08:00 16,8 C 95 % 1015,3 hPa 0,0 mm 0,0 km/h (0 Bft) E-SE 115 0 min 16,0 C 16,8 C 1,6 km/h (1 Bft)
21.07.2019 07:45 16,5 C 95 % 1015,2 hPa 0,0 mm 0,0 km/h (0 Bft) E-SE 115 0 min 15,7 C 16,5 C 1,6 km/h (1 Bft)
21.07.2019 07:30 16,3 C 95 % 1015,1 hPa 0,0 mm 0,0 km/h (0 Bft) E-SE 115 0 min 15,5 C 16,3 C 1,6 km/h (1 Bft)
21.07.2019 07:15 16,1 C 95 % 1014,8 hPa 0,0 mm 0,0 km/h (0 Bft) E-SE 114 0 min 15,3 C 16,1 C 1,6 km/h (1 Bft)
21.07.2019 07:00 16,0 C 95 % 1014,6 hPa 0,0 mm 0,0 km/h (0 Bft) E-SE 116 0 min 15,2 C 16,0 C 1,6 km/h (1 Bft)
21.07.2019 06:45 16,0 C 95 % 1014,4 hPa 0,0 mm 0,9 km/h (0 Bft) E-SE 123 0 min 15,2 C 16,0 C 8,0 km/h (2 Bft)
21.07.2019 06:30 16,1 C 95 % 1014,3 hPa 0,0 mm 3,5 km/h (1 Bft) E-SE 111 0 min 15,3 C 16,1 C 11,3 km/h (2 Bft)
21.07.2019 06:15 16,1 C 95 % 1014,0 hPa 0,0 mm 1,6 km/h (1 Bft) E-SE 107 0 min 15,3 C 16,1 C 8,0 km/h (2 Bft)
21.07.2019 06:00 16,2 C 95 % 1013,7 hPa 0,0 mm 0,9 km/h (0 Bft) E-SE 112 0 min 15,4 C 16,2 C 8,0 km/h (2 Bft)
21.07.2019 05:45 16,2 C 95 % 1013,6 hPa 0,3 mm 0,5 km/h (0 Bft) E 88 0 min 15,4 C 16,2 C 8,0 km/h (2 Bft)
21.07.2019 05:30 16,3 C 95 % 1013,5 hPa 0,0 mm 0,2 km/h (0 Bft) E 88 0 min 15,5 C 16,3 C 4,8 km/h (1 Bft)
21.07.2019 05:15 16,4 C 95 % 1013,2 hPa 0,0 mm 1,8 km/h (1 Bft) E 88 0 min 15,6 C 16,4 C 9,7 km/h (2 Bft)
21.07.2019 05:00 16,4 C 95 % 1013,2 hPa 0,0 mm 1,0 km/h (0 Bft) E 95 0 min 15,6 C 16,4 C 8,0 km/h (2 Bft)
21.07.2019 04:45 16,5 C 95 % 1012,9 hPa 0,0 mm 0,7 km/h (0 Bft) E 94 0 min 15,7 C 16,5 C 8,0 km/h (2 Bft)
21.07.2019 04:30 16,6 C 95 % 1012,8 hPa 0,0 mm 0,0 km/h (0 Bft) E 94 0 min 15,8 C 16,6 C 1,6 km/h (1 Bft)
21.07.2019 04:15 16,4 C 95 % 1012,7 hPa 0,0 mm 0,3 km/h (0 Bft) E 94 0 min 15,6 C 16,4 C 8,0 km/h (2 Bft)
21.07.2019 04:00 16,3 C 95 % 1012,6 hPa 0,0 mm 0,1 km/h (0 Bft) E 94 0 min 15,5 C 16,3 C 4,8 km/h (1 Bft)
21.07.2019 03:45 16,3 C 95 % 1012,6 hPa 0,0 mm 0,1 km/h (0 Bft) E 95 0 min 15,5 C 16,3 C 3,2 km/h (1 Bft)
21.07.2019 03:30 16,4 C 95 % 1012,5 hPa 0,0 mm 0,7 km/h (0 Bft) E 96 0 min 15,6 C 16,4 C 8,0 km/h (2 Bft)
21.07.2019 03:15 16,6 C 95 % 1012,5 hPa 0,0 mm 0,0 km/h (0 Bft) E 101 0 min 15,8 C 16,6 C 1,6 km/h (1 Bft)
21.07.2019 03:00 16,8 C 95 % 1012,4 hPa 0,0 mm 0,4 km/h (0 Bft) E 100 0 min 16,0 C 16,8 C 4,8 km/h (1 Bft)
21.07.2019 02:45 16,8 C 95 % 1012,5 hPa 0,0 mm 0,0 km/h (0 Bft) E 100 0 min 16,0 C 16,8 C 0,0 km/h (0 Bft)
21.07.2019 02:30 16,8 C 95 % 1012,6 hPa 0,0 mm 0,3 km/h (0 Bft) E 98 0 min 16,0 C 16,8 C 4,8 km/h (1 Bft)
21.07.2019 02:15 16,7 C 95 % 1012,5 hPa 0,0 mm 1,0 km/h (0 Bft) E 98 0 min 15,9 C 16,7 C 8,0 km/h (2 Bft)
21.07.2019 02:00 16,7 C 95 % 1012,6 hPa 0,0 mm 0,0 km/h (0 Bft) E 98 0 min 15,9 C 16,7 C 1,6 km/h (1 Bft)
21.07.2019 01:45 16,6 C 96 % 1012,6 hPa 0,0 mm 0,1 km/h (0 Bft) E 98 0 min 16,0 C 16,6 C 4,8 km/h (1 Bft)
21.07.2019 01:30 16,4 C 95 % 1012,6 hPa 0,0 mm 0,0 km/h (0 Bft) E 98 0 min 15,6 C 16,4 C 1,6 km/h (1 Bft)
21.07.2019 01:15 16,4 C 95 % 1012,6 hPa 0,0 mm 1,0 km/h (0 Bft) E 92 0 min 15,6 C 16,4 C 9,7 km/h (2 Bft)
21.07.2019 01:00 16,3 C 95 % 1012,5 hPa 0,0 mm 0,4 km/h (0 Bft) E 96 0 min 15,5 C 16,3 C 9,7 km/h (2 Bft)
21.07.2019 00:45 16,3 C 95 % 1012,1 hPa 0,0 mm 0,0 km/h (0 Bft) E-SE 103 0 min 15,5 C 16,3 C 1,6 km/h (1 Bft)
21.07.2019 00:30 16,4 C 95 % 1012,0 hPa 0,0 mm 0,0 km/h (0 Bft) E-SE 113 0 min 15,6 C 16,4 C 0,0 km/h (0 Bft)
21.07.2019 00:15 16,6 C 95 % 1011,9 hPa 0,0 mm 0,0 km/h (0 Bft) E-SE 113 0 min 15,8 C 16,6 C 1,6 km/h (1 Bft)
21.07.2019 00:00 16,7 C 95 % 1011,7 hPa 0,0 mm 0,0 km/h (0 Bft) E-SE 111 0 min 15,9 C 16,7 C 0,0 km/h (0 Bft)
20.07.2019 22:45 17,0 C 94 % 1011,2 hPa 0,0 mm 2,9 km/h (1 Bft) E 84 0 min 16,0 C 17,0 C 14,5 km/h (3 Bft)
20.07.2019 22:30 17,1 C 94 % 1011,1 hPa 0,0 mm 0,3 km/h (0 Bft) E 101 0 min 16,1 C 17,1 C 6,4 km/h (2 Bft)
20.07.2019 22:15 17,2 C 94 % 1010,9 hPa 0,0 mm 0,1 km/h (0 Bft) SE 141 0 min 16,2 C 17,2 C 3,2 km/h (1 Bft)
20.07.2019 22:00 17,3 C 93 % 1011,0 hPa 0,3 mm 0,0 km/h (0 Bft) SE 128 0 min 16,2 C 17,3 C 0,0 km/h (0 Bft)
20.07.2019 21:45 17,6 C 93 % 1010,8 hPa 1,3 mm 0,0 km/h (0 Bft) SE 128 0 min 16,5 C 17,6 C 0,0 km/h (0 Bft)
20.07.2019 21:30 17,7 C 93 % 1010,6 hPa 1,5 mm 0,0 km/h (0 Bft) E-NE 76 0 min 16,6 C 17,7 C 0,0 km/h (0 Bft)
20.07.2019 21:15 17,6 C 92 % 1011,0 hPa 2,3 mm 0,0 km/h (0 Bft) N 5 0 min 16,3 C 17,6 C 0,0 km/h (0 Bft)
20.07.2019 21:00 17,5 C 91 % 1011,5 hPa 1,8 mm 3,6 km/h (1 Bft) N-NO 332 0 min 16,0 C 17,5 C 17,7 km/h (3 Bft)
20.07.2019 20:45 17,8 C 90 % 1012,0 hPa 0,0 mm 7,4 km/h (2 Bft) SO 231 0 min 16,1 C 17,8 C 20,9 km/h (4 Bft)
20.07.2019 20:30 18,2 C 88 % 1010,3 hPa 0,0 mm 0,0 km/h (0 Bft) S-SE 167 0 min 16,2 C 18,2 C 0,0 km/h (0 Bft)
20.07.2019 20:15 18,3 C 87 % 1009,8 hPa 0,0 mm 4,2 km/h (1 Bft) E-SE 108 0 min 16,1 C 18,3 C 12,9 km/h (3 Bft)
20.07.2019 20:00 18,6 C 86 % 1010,1 hPa 0,0 mm 0,4 km/h (0 Bft) E-NE 67 0 min 16,2 C 18,6 C 12,9 km/h (3 Bft)
20.07.2019 19:45 18,2 C 87 % 1009,9 hPa 0,3 mm 1,8 km/h (1 Bft) O-NO 290 0 min 16,0 C 18,2 C 12,9 km/h (3 Bft)
20.07.2019 19:30 18,1 C 85 % 1009,0 hPa 1,8 mm 2,5 km/h (1 Bft) N 355 0 min 15,5 C 18,1 C 12,9 km/h (3 Bft)
20.07.2019 19:15 18,8 C 79 % 1010,1 hPa 1,5 mm 13,8 km/h (3 Bft) O 266 0 min 15,1 C 18,8 C 38,6 km/h (5 Bft)
20.07.2019 19:00 20,5 C 72 % 1009,7 hPa 0,5 mm 22,4 km/h (4 Bft) O 263 0 min 15,3 C 20,5 C 61,2 km/h (7 Bft)
20.07.2019 18:45 26,6 C 62 % 1007,8 hPa 0,3 mm 0,4 km/h (0 Bft) E-SE 116 0 min 18,7 C 26,6 C 6,4 km/h (2 Bft)
20.07.2019 18:30 27,7 C 55 % 1007,9 hPa 0,0 mm 0,5 km/h (0 Bft) E-SE 105 0 min 17,8 C 27,7 C 11,3 km/h (2 Bft)
20.07.2019 18:15 28,1 C 52 % 1007,9 hPa 0,0 mm 2,1 km/h (1 Bft) SE 146 0 min 17,3 C 28,1 C 12,9 km/h (3 Bft)
20.07.2019 18:00 28,3 C 50 % 1007,7 hPa 0,0 mm 2,6 km/h (1 Bft) E-SE 105 0 min 16,9 C 28,3 C 12,9 km/h (3 Bft)
20.07.2019 17:45 28,5 C 49 % 1007,5 hPa 0,0 mm 1,7 km/h (1 Bft) SE 136 0 min 16,7 C 28,5 C 17,7 km/h (3 Bft)
20.07.2019 17:30 28,7 C 48 % 1007,3 hPa 0,0 mm 5,6 km/h (1 Bft) E-SE 107 0 min 16,6 C 28,7 C 20,9 km/h (4 Bft)
20.07.2019 17:15 29,2 C 46 % 1007,2 hPa 0,0 mm 4,4 km/h (1 Bft) E 88 0 min 16,4 C 29,2 C 17,7 km/h (3 Bft)
20.07.2019 17:00 29,2 C 46 % 1007,6 hPa 0,0 mm 3,8 km/h (1 Bft) S-SE 158 15 min 16,4 C 29,2 C 19,3 km/h (3 Bft)
20.07.2019 16:45 29,1 C 46 % 1007,9 hPa 0,0 mm 3,6 km/h (1 Bft) E 87 0 min 16,3 C 29,1 C 24,1 km/h (4 Bft)
20.07.2019 16:30 29,0 C 45 % 1008,0 hPa 0,0 mm 6,8 km/h (2 Bft) S 191 0 min 15,8 C 29,0 C 25,7 km/h (4 Bft)
20.07.2019 16:15 29,3 C 46 % 1007,9 hPa 0,0 mm 10,1 km/h (2 Bft) E 93 15 min 16,5 C 29,3 C 25,7 km/h (4 Bft)
20.07.2019 16:00 29,7 C 46 % 1008,1 hPa 0,0 mm 5,0 km/h (1 Bft) SE 135 15 min 16,8 C 29,7 C 27,4 km/h (4 Bft)
20.07.2019 15:45 28,9 C 46 % 1008,2 hPa 0,0 mm 3,5 km/h (1 Bft) SE 136 15 min 16,1 C 28,9 C 16,1 km/h (3 Bft)
20.07.2019 15:30 29,1 C 46 % 1008,5 hPa 0,0 mm 5,0 km/h (1 Bft) SE 142 0 min 16,3 C 29,1 C 16,1 km/h (3 Bft)
20.07.2019 15:15 28,9 C 46 % 1008,7 hPa 0,0 mm 3,4 km/h (1 Bft) S-SE 160 15 min 16,1 C 28,9 C 16,1 km/h (3 Bft)
20.07.2019 15:00 28,6 C 47 % 1009,0 hPa 0,0 mm 3,5 km/h (1 Bft) E-SE 107 15 min 16,2 C 28,6 C 22,5 km/h (4 Bft)
20.07.2019 14:45 28,3 C 50 % 1009,2 hPa 0,0 mm 4,0 km/h (1 Bft) SE 132 0 min 16,9 C 28,3 C 24,1 km/h (4 Bft)
20.07.2019 14:30 28,6 C 51 % 1009,3 hPa 0,0 mm 5,1 km/h (1 Bft) S 186 15 min 17,4 C 28,6 C 19,3 km/h (3 Bft)
20.07.2019 14:15 28,4 C 49 % 1009,5 hPa 0,0 mm 5,0 km/h (1 Bft) E 97 0 min 16,6 C 28,4 C 19,3 km/h (3 Bft)
20.07.2019 14:00 28,2 C 49 % 1009,5 hPa 0,0 mm 5,2 km/h (1 Bft) SE 140 0 min 16,5 C 28,2 C 20,9 km/h (4 Bft)
_ Min-Heure 06:45 16:30 17:15 - 20:30 - - - 12:45 06:45 20:30
Minimum _ 16,0 C 45 % 1007,2 hPa - 0,0 km/h (0 Bft) - - - 14,7 C 16,0 C 0,0 km/h (0 Bft)
_ Max-Heure 16:00 01:45 13:00 21:15 19:00 - - 14:30 18:45 16:00 19:00
Maximum _ 29,7 C 96 % 1017,6 hPa 2,3 mm 22,4 km/h
O (4 Bft)
- - 15 min 18,7 C 29,7 C 61,2 km/h
O (7 Bft)
Moyenne _ 20,7 C 77 % 1012,2 hPa #11,7 mm 2,9 km/h (1 Bft) SO - #3:00 h 16,0 C 20,7 C 12,5 km/h (3 Bft)